Weather at Albuquerque International Sunport

Public forecast

Using degrees Fahrenheit for public forecast. Weather courtesy of forecast.io.

Current aviation weather report (METAR) for Albuquerque International Sunport

2023/02/04 08:52 (retrieved 51 minutes ago)

KABQ 040852Z 13003KT 10SM FEW150 SCT200 BKN240 02/M11 A3029 RMK AO2 SLP241 T00171111 58012

Aviation forecast (TAF) for Albuquerque International Sunport

2023/02/04 06:24 (retrieved 3 hours ago)

TAF KABQ 040522Z 0406/0506 VRB05KT P6SM BKN200 FM042000 29006KT P6SM FEW200 FM050000 35005KT P6SM SKC